Time;durP1;ratioP1;P1;durP2;ratioP2;P2;SDS_P1;SDS_P2;PMS_P1;PMS_P2;Temp;Humidity;BMP_temperature;BMP_pressure;BME280_temperature;BME280_humidity;BME280_pressure;Samples;Min_cycle;Max_cycle;Signal;HPM_P1;HPM_P2
2022/05/12 00:01:19;;;;;;;30.60;8.43;;;16.10;99.90;;;;;;5052482;28;20216;-76
2022/05/12 00:03:46;;;;;;;37.73;8.73;;;16.10;99.90;;;;;;5051451;28;20707;-76
2022/05/12 00:06:13;;;;;;;30.07;7.93;;;16.10;99.90;;;;;;5068885;28;20274;-77
2022/05/12 00:08:42;;;;;;;31.90;9.00;;;16.00;99.90;;;;;;5058061;28;20220;-76
2022/05/12 00:11:09;;;;;;;25.97;6.77;;;16.10;99.90;;;;;;5052805;28;20212;-76
2022/05/12 00:13:36;;;;;;;28.87;6.83;;;16.00;99.90;;;;;;5044839;28;20228;-76
2022/05/12 00:16:04;;;;;;;33.30;7.77;;;16.00;99.90;;;;;;5052749;28;20242;-76
2022/05/12 00:18:31;;;;;;;27.10;7.70;;;;;;;;;;5051354;28;20231;-76
2022/05/12 00:20:58;;;;;;;30.10;7.77;;;16.00;99.90;;;;;;5051365;28;20227;-76
2022/05/12 00:23:27;;;;;;;31.13;7.73;;;15.90;99.90;;;;;;5051258;28;20220;-76
2022/05/12 00:25:57;;;;;;;29.33;7.23;;;15.90;99.90;;;;;;5050707;28;20679;-76
2022/05/12 00:28:26;;;;;;;29.70;7.67;;;15.90;99.90;;;;;;5070524;28;20216;-76
2022/05/12 00:30:57;;;;;;;27.10;8.13;;;15.80;99.90;;;;;;5051194;28;20295;-76
2022/05/12 00:33:27;;;;;;;27.47;7.43;;;15.70;99.90;;;;;;5061076;28;20293;-76
2022/05/12 00:35:55;;;;;;;33.90;7.80;;;15.50;99.90;;;;;;5049615;28;20315;-76
2022/05/12 00:38:22;;;;;;;25.90;7.03;;;15.50;99.90;;;;;;5069781;28;20598;-76
2022/05/12 00:40:50;;;;;;;38.50;9.03;;;15.50;99.90;;;;;;5068378;28;20215;-76
2022/05/12 00:43:39;;;;;;;25.87;6.97;;;15.20;99.90;;;;;;5050081;28;20242;-76
2022/05/12 00:46:07;;;;;;;34.87;8.37;;;15.30;99.90;;;;;;5050164;28;20215;-76
2022/05/12 00:48:34;;;;;;;30.77;7.50;;;15.20;99.90;;;;;;5050292;28;20600;-76
2022/05/12 00:51:02;;;;;;;39.63;9.17;;;15.20;99.90;;;;;;5050020;28;20235;-75
2022/05/12 00:53:31;;;;;;;30.87;7.67;;;15.10;99.90;;;;;;5058702;28;20207;-77
2022/05/12 00:55:59;;;;;;;34.73;8.60;;;15.00;99.90;;;;;;5049989;28;20219;-77
2022/05/12 00:58:29;;;;;;;35.20;8.27;;;14.90;99.90;;;;;;5049917;28;20219;-76
2022/05/12 01:00:57;;;;;;;39.77;9.67;;;14.90;99.90;;;;;;5051592;28;20206;-78
2022/05/12 01:03:28;;;;;;;29.03;7.80;;;14.80;99.90;;;;;;5054287;28;20216;-78
2022/05/12 01:05:56;;;;;;;34.27;8.60;;;14.60;99.90;;;;;;5051515;28;20290;-78
2022/05/12 01:08:24;;;;;;;26.20;6.63;;;14.60;99.90;;;;;;5053131;28;20238;-79
2022/05/12 01:10:56;;;;;;;29.90;7.97;;;14.40;99.90;;;;;;5055970;28;20698;-79
2022/05/12 01:13:23;;;;;;;29.23;7.63;;;14.40;99.90;;;;;;5055005;28;20218;-79
2022/05/12 01:15:54;;;;;;;33.97;8.33;;;14.20;99.90;;;;;;5052596;28;20561;-77
2022/05/12 01:18:23;;;;;;;43.37;10.03;;;16.10;99.90;;;;;;5046754;28;20252;-77
2022/05/12 01:20:51;;;;;;;33.57;8.00;;;14.10;99.90;;;;;;5049389;28;20251;-76
2022/05/12 01:23:25;;;;;;;34.13;8.60;;;13.90;99.90;;;;;;5049072;28;20221;-77
2022/05/12 01:25:56;;;;;;;32.80;7.57;;;13.90;99.90;;;;;;5045583;28;20248;-76
2022/05/12 01:28:24;;;;;;;40.30;9.07;;;13.90;99.90;;;;;;5050801;28;20563;-77
2022/05/12 01:30:51;;;;;;;31.07;8.73;;;13.80;99.90;;;;;;5062259;28;20206;-79
2022/05/12 01:33:19;;;;;;;31.07;8.03;;;13.80;99.90;;;;;;5052910;28;20242;-79
2022/05/12 01:35:47;;;;;;;34.00;8.43;;;13.70;99.90;;;;;;5052501;28;20206;-79
2022/05/12 01:38:14;;;;;;;35.70;8.47;;;13.60;99.90;;;;;;5052849;28;20308;-79
2022/05/12 01:40:44;;;;;;;30.20;8.20;;;13.50;99.90;;;;;;5072669;28;20198;-82
2022/05/12 01:43:12;;;;;;;32.37;8.60;;;13.40;99.90;;;;;;5053195;28;20263;-79
2022/05/12 01:45:40;;;;;;;31.07;8.50;;;13.30;99.90;;;;;;5056643;28;20282;-80
2022/05/12 01:48:10;;;;;;;34.50;8.97;;;13.20;99.90;;;;;;5057767;28;20233;-80
2022/05/12 01:50:37;;;;;;;41.37;10.20;;;;;;;;;;5057495;28;20198;-79
2022/05/12 01:53:05;;;;;;;33.97;9.20;;;13.20;99.90;;;;;;5073485;28;20212;-77
2022/05/12 01:55:32;;;;;;;35.73;8.53;;;13.10;99.90;;;;;;5050621;28;20237;-77
2022/05/12 01:58:01;;;;;;;36.13;9.47;;;13.00;99.90;;;;;;5051351;28;20272;-77
2022/05/12 02:00:30;;;;;;;44.40;9.87;;;13.00;99.90;;;;;;5050809;28;21117;-76
2022/05/12 02:03:00;;;;;;;36.57;8.97;;;13.00;99.90;;;;;;5044411;28;20216;-76
2022/05/12 02:05:28;;;;;;;38.73;9.77;;;13.00;99.90;;;;;;5053006;28;20237;-76
2022/05/12 02:07:56;;;;;;;42.23;9.70;;;13.00;99.90;;;;;;5049044;28;20283;-76
2022/05/12 02:10:26;;;;;;;36.57;9.87;;;13.00;99.90;;;;;;5052294;28;20209;-75
2022/05/12 02:12:53;;;;;;;37.97;10.43;;;13.00;99.90;;;;;;5067290;28;20846;-77
2022/05/12 02:15:23;;;;;;;37.03;9.73;;;13.00;99.90;;;;;;5049549;28;20561;-77
2022/05/12 02:17:50;;;;;;;41.53;10.23;;;12.90;99.90;;;;;;5048945;28;20303;-78
2022/05/12 02:20:20;;;;;;;36.97;9.20;;;12.90;99.90;;;;;;5034311;28;20294;-77
2022/05/12 02:22:47;;;;;;;35.30;8.80;;;12.90;99.90;;;;;;5047623;28;20209;-77
2022/05/12 02:25:14;;;;;;;44.83;10.33;;;12.70;99.90;;;;;;5071719;28;20724;-78
2022/05/12 02:27:45;;;;;;;43.37;9.73;;;;;;;;;;5051163;28;20706;-76
2022/05/12 02:30:16;;;;;;;33.47;8.07;;;12.60;99.90;;;;;;5053743;28;20215;-75
2022/05/12 02:32:45;;;;;;;44.63;9.57;;;12.60;99.90;;;;;;5053076;28;20229;-75
2022/05/12 02:35:12;;;;;;;42.37;9.33;;;12.50;99.90;;;;;;5053862;28;20204;-77
2022/05/12 02:37:39;;;;;;;49.73;10.30;;;12.50;99.90;;;;;;5053683;28;20251;-77
2022/05/12 02:40:08;;;;;;;40.83;9.60;;;12.40;99.90;;;;;;5052210;28;20605;-76
2022/05/12 02:42:35;;;;;;;41.50;9.77;;;12.40;99.90;;;;;;5066038;28;20323;-75
2022/05/12 02:45:03;;;;;;;49.43;11.07;;;11.80;99.90;;;;;;5052335;28;20304;-75
2022/05/12 02:47:30;;;;;;;49.83;11.27;;;12.30;99.90;;;;;;5061758;28;20669;-76
2022/05/12 02:49:58;;;;;;;48.13;11.33;;;12.20;99.90;;;;;;5068988;28;20601;-76
2022/05/12 02:52:26;;;;;;;51.83;11.83;;;12.10;99.90;;;;;;5051228;28;20227;-76
2022/05/12 02:54:53;;;;;;;52.07;12.20;;;12.00;99.90;;;;;;5055215;28;20208;-76
2022/05/12 02:57:21;;;;;;;57.33;13.63;;;11.80;99.90;;;;;;5051806;28;20285;-76
2022/05/12 02:59:48;;;;;;;61.63;14.83;;;11.80;99.90;;;;;;5054000;28;20239;-76
2022/05/12 03:02:21;;;;;;;72.17;15.73;;;11.70;99.90;;;;;;5051378;28;20215;-77
2022/05/12 03:04:48;;;;;;;63.97;13.93;;;11.60;99.90;;;;;;5051832;28;20630;-76
2022/05/12 03:07:18;;;;;;;64.93;14.60;;;11.50;99.90;;;;;;5069357;28;21004;-77
2022/05/12 03:09:45;;;;;;;61.27;14.60;;;11.40;99.90;;;;;;5069851;28;20232;-77
2022/05/12 03:12:12;;;;;;;58.80;13.73;;;11.40;99.90;;;;;;5051337;28;20235;-77
2022/05/12 03:14:39;;;;;;;59.30;14.10;;;11.30;99.90;;;;;;5051754;28;20200;-74
2022/05/12 03:17:06;;;;;;;60.33;14.07;;;11.20;99.90;;;;;;5069933;28;20234;-74
2022/05/12 03:19:33;;;;;;;61.70;15.00;;;11.20;99.90;;;;;;5051224;28;20241;-74
2022/05/12 03:22:01;;;;;;;62.33;14.87;;;11.10;99.90;;;;;;5070386;28;20269;-74
2022/05/12 03:24:29;;;;;;;59.60;15.33;;;11.10;99.90;;;;;;5069509;28;20620;-74
2022/05/12 03:26:56;;;;;;;56.40;13.33;;;11.00;99.90;;;;;;5056065;28;20314;-77
2022/05/12 03:29:24;;;;;;;66.40;15.17;;;11.00;99.90;;;;;;5051090;28;20200;-75
2022/05/12 03:31:51;;;;;;;61.03;14.77;;;10.90;99.90;;;;;;5068010;28;20216;-75
2022/05/12 03:34:18;;;;;;;54.53;14.50;;;10.90;99.90;;;;;;5051551;28;20668;-75
2022/05/12 03:36:45;;;;;;;56.97;14.77;;;10.80;99.90;;;;;;5050978;28;20708;-76
2022/05/12 03:39:12;;;;;;;51.20;13.60;;;10.80;99.90;;;;;;5050946;28;20200;-75
2022/05/12 03:41:41;;;;;;;52.37;13.80;;;10.60;99.90;;;;;;5072118;28;20208;-75
2022/05/12 03:46:53;;;;;;;39.83;12.10;;;10.60;99.90;;;;;;5051227;28;20901;-76
2022/05/12 03:49:20;;;;;;;54.93;13.93;;;10.80;99.90;;;;;;5050536;28;20344;-75
2022/05/12 03:51:48;;;;;;;55.00;14.43;;;10.50;99.90;;;;;;5050938;28;20220;-75
2022/05/12 03:54:15;;;;;;;53.97;14.60;;;10.50;99.90;;;;;;5050736;28;20212;-75
2022/05/12 03:56:44;;;;;;;50.90;14.00;;;10.50;99.90;;;;;;5050022;28;20247;-75
2022/05/12 03:59:11;;;;;;;53.60;14.33;;;10.50;99.90;;;;;;5054222;28;20569;-74
2022/05/12 04:01:39;;;;;;;67.33;15.83;;;10.50;99.90;;;;;;5050764;28;20212;-75
2022/05/12 04:04:09;;;;;;;56.67;13.97;;;10.50;99.90;;;;;;5072009;28;20224;-74
2022/05/12 04:06:37;;;;;;;50.83;14.60;;;10.40;99.90;;;;;;5050980;28;20262;-75
2022/05/12 04:09:04;;;;;;;53.80;14.47;;;10.40;99.90;;;;;;5051536;28;20239;-74
2022/05/12 04:11:34;;;;;;;53.93;14.07;;;10.50;99.90;;;;;;5051669;28;20220;-74
2022/05/12 04:14:04;;;;;;;57.50;14.47;;;10.40;99.90;;;;;;5045895;28;20259;-74
2022/05/12 04:16:32;;;;;;;48.13;13.50;;;10.50;99.90;;;;;;5050320;28;20239;-74
2022/05/12 04:19:00;;;;;;;59.70;15.43;;;10.50;99.90;;;;;;5054109;28;20204;-73
2022/05/12 04:21:30;;;;;;;52.07;14.07;;;10.60;99.90;;;;;;5051297;28;20263;-75
2022/05/12 04:23:57;;;;;;;59.33;15.77;;;10.70;99.90;;;;;;5050651;28;20265;-75
2022/05/12 04:26:24;;;;;;;51.87;14.27;;;;;;;;;;5052543;28;20227;-75
2022/05/12 04:28:52;;;;;;;46.77;13.47;;;10.70;99.90;;;;;;5056484;28;20224;-78
2022/05/12 04:31:20;;;;;;;50.20;14.27;;;10.70;99.90;;;;;;5054023;28;20740;-76
2022/05/12 04:36:33;;;;;;;54.77;14.43;;;10.90;99.90;;;;;;5069444;28;20223;-76
2022/05/12 04:39:00;;;;;;;49.50;12.77;;;10.90;99.90;;;;;;5052994;28;20216;-76
2022/05/12 04:41:28;;;;;;;51.40;14.07;;;11.00;99.90;;;;;;5071063;28;20664;-77
2022/05/12 04:43:55;;;;;;;49.10;13.77;;;11.10;99.90;;;;;;5055233;28;20576;-78
2022/05/12 04:46:24;;;;;;;71.70;16.70;;;11.20;99.90;;;;;;5077927;22;21552;-70
2022/05/12 04:48:52;;;;;;;41.77;12.60;;;11.30;99.90;;;;;;5062424;28;20215;-71
2022/05/12 04:51:19;;;;;;;39.50;12.57;;;11.40;99.90;;;;;;5064368;28;20209;-71
2022/05/12 04:53:46;;;;;;;39.33;12.03;;;11.50;99.90;;;;;;5063012;28;20228;-71
2022/05/12 04:56:13;;;;;;;47.50;14.20;;;11.50;99.90;;;;;;5064796;28;20199;-71
2022/05/12 04:58:40;;;;;;;45.13;13.47;;;11.50;99.90;;;;;;5065900;28;20212;-71
2022/05/12 05:01:07;;;;;;;50.33;13.97;;;11.60;99.90;;;;;;5065803;28;20205;-71
2022/05/12 05:03:35;;;;;;;38.70;12.47;;;11.70;99.90;;;;;;5065212;28;20231;-71
2022/05/12 05:06:02;;;;;;;43.00;13.30;;;11.80;99.90;;;;;;5047728;28;20327;-72
2022/05/12 05:08:29;;;;;;;42.03;12.77;;;11.90;99.90;;;;;;5066513;28;20205;-71
2022/05/12 05:10:56;;;;;;;41.93;13.27;;;12.00;99.90;;;;;;5072748;28;20572;-71
2022/05/12 05:13:24;;;;;;;40.93;12.33;;;12.20;99.90;;;;;;5063959;28;20680;-71
2022/05/12 05:15:53;;;;;;;38.10;11.70;;;12.30;99.90;;;;;;5065149;28;20255;-71
2022/05/12 05:18:21;;;;;;;44.57;12.27;;;12.50;99.90;;;;;;5058742;28;20207;-71
2022/05/12 05:20:50;;;;;;;46.27;13.10;;;12.60;99.90;;;;;;5048385;28;20515;-71
2022/05/12 05:23:21;;;;;;;37.13;12.17;;;12.80;99.90;;;;;;5061928;28;20587;-71
2022/05/12 05:25:48;;;;;;;38.77;11.53;;;13.00;99.90;;;;;;5062851;28;20580;-71
2022/05/12 05:28:16;;;;;;;32.90;10.17;;;13.20;99.90;;;;;;5067345;28;20202;-71
2022/05/12 05:30:44;;;;;;;35.90;10.93;;;13.40;99.90;;;;;;5067067;28;20211;-70
2022/05/12 05:33:11;;;;;;;28.33;9.23;;;13.90;99.90;;;;;;5046729;28;20238;-72
2022/05/12 05:35:38;;;;;;;35.60;9.60;;;14.00;99.90;;;;;;5060404;28;20211;-71
2022/05/12 05:38:07;;;;;;;40.00;9.67;;;14.30;99.90;;;;;;5065597;28;20673;-70
2022/05/12 05:40:34;;;;;;;31.57;7.93;;;14.80;99.90;;;;;;5063981;28;20949;-71
2022/05/12 05:43:02;;;;;;;30.30;8.13;;;16.20;99.90;;;;;;5065250;28;20252;-73
2022/05/12 05:45:30;;;;;;;34.70;8.00;;;17.60;99.90;;;;;;5067228;28;20227;-72
2022/05/12 05:48:01;;;;;;;42.70;9.37;;;17.60;99.90;;;;;;5063545;28;20276;-72
2022/05/12 05:50:31;;;;;;;41.87;10.17;;;17.90;99.90;;;;;;5039493;28;20243;-73
2022/05/12 05:55:43;;;;;;;48.90;11.20;;;17.80;99.90;;;;;;5053212;28;20211;-72
2022/05/12 05:58:10;;;;;;;57.47;12.77;;;17.80;99.90;;;;;;5044832;28;20723;-71
2022/05/12 06:00:39;;;;;;;49.87;11.97;;;17.70;99.90;;;;;;5059629;28;20252;-72
2022/05/12 06:03:07;;;;;;;48.53;11.73;;;17.80;99.90;;;;;;5060197;28;20239;-72
2022/05/12 06:05:33;;;;;;;58.80;13.60;;;17.70;99.90;;;;;;5069507;28;20224;-72
2022/05/12 06:08:00;;;;;;;57.47;13.57;;;17.70;99.90;;;;;;5068986;28;20630;-72
2022/05/12 06:10:28;;;;;;;55.57;13.30;;;;;;;;;;5068513;28;20645;-72
2022/05/12 06:12:56;;;;;;;59.23;13.97;;;18.00;99.90;;;;;;5066634;28;20239;-72
2022/05/12 06:15:25;;;;;;;53.27;12.23;;;18.20;99.90;;;;;;5068814;28;20196;-71
2022/05/12 06:17:53;;;;;;;56.13;12.53;;;18.40;99.90;;;;;;5051920;28;20223;-72
2022/05/12 06:20:20;;;;;;;61.57;14.87;;;18.60;99.90;;;;;;5068925;28;20232;-72
2022/05/12 06:22:47;;;;;;;63.07;15.33;;;19.40;99.90;;;;;;5067978;28;20220;-71
2022/05/12 06:25:16;;;;;;;59.77;15.40;;;19.40;99.90;;;;;;5051990;28;20270;-71
2022/05/12 06:27:45;;;;;;;65.37;16.47;;;21.00;99.90;;;;;;5073021;28;20335;-72
2022/05/12 06:30:15;;;;;;;65.40;16.60;;;23.00;99.90;;;;;;5067424;28;20212;-72
2022/05/12 06:32:43;;;;;;;61.37;16.53;;;26.10;99.90;;;;;;5047915;28;20598;-73
2022/05/12 06:35:12;;;;;;;64.77;16.27;;;26.30;99.90;;;;;;5067146;28;20719;-73
2022/05/12 06:37:40;;;;;;;56.17;14.53;;;27.20;99.90;;;;;;5076545;28;20222;-72
2022/05/12 06:40:08;;;;;;;71.00;17.40;;;26.50;99.90;;;;;;5049010;28;20215;-72
2022/05/12 06:42:36;;;;;;;63.30;15.90;;;24.80;99.90;;;;;;5059112;28;20343;-72
2022/05/12 06:45:03;;;;;;;64.83;15.80;;;24.70;99.90;;;;;;5070143;28;20264;-72
2022/05/12 06:47:32;;;;;;;56.80;14.87;;;24.60;99.90;;;;;;5045049;28;20668;-73
2022/05/12 06:50:01;;;;;;;55.47;13.97;;;25.30;99.90;;;;;;5051359;28;20219;-73
2022/05/12 06:52:28;;;;;;;65.80;16.17;;;25.90;99.90;;;;;;5066365;28;20221;-73
2022/05/12 06:54:56;;;;;;;57.83;14.50;;;25.90;99.90;;;;;;5069902;28;20286;-74
2022/05/12 06:57:27;;;;;;;61.60;15.70;;;25.20;99.90;;;;;;5070359;28;20641;-73
2022/05/12 06:59:54;;;;;;;65.80;16.47;;;24.90;99.90;;;;;;5065945;28;20210;-73
2022/05/12 07:02:22;;;;;;;86.10;20.73;;;23.20;99.90;;;;;;5068974;28;20205;-72
2022/05/12 07:04:52;;;;;;;39.37;11.47;;;23.40;99.90;;;;;;5069008;28;20212;-72
2022/05/12 07:07:21;;;;;;;40.50;11.73;;;23.20;99.90;;;;;;5065990;28;20322;-73
2022/05/12 07:09:52;;;;;;;36.47;10.40;;;22.90;99.90;;;;;;5068871;28;20218;-73
2022/05/12 07:12:19;;;;;;;46.70;12.87;;;22.00;99.90;;;;;;5066991;28;20349;-73
2022/05/12 07:14:46;;;;;;;37.83;11.30;;;22.00;99.90;;;;;;5060794;28;20628;-74
2022/05/12 07:17:18;;;;;;;33.80;11.13;;;23.10;99.90;;;;;;5051042;28;20245;-73
2022/05/12 07:19:45;;;;;;;39.47;10.63;;;23.80;99.90;;;;;;5053264;28;20281;-74
2022/05/12 07:27:38;;;;;;;33.57;9.87;;;24.60;99.90;;;;;;5072012;28;20230;-73
2022/05/12 07:30:08;;;;;;;34.10;10.00;;;24.20;99.90;;;;;;5067317;28;20212;-73
2022/05/12 07:32:37;;;;;;;31.67;9.53;;;23.50;99.90;;;;;;5063237;28;20673;-73
2022/05/12 07:35:05;;;;;;;32.60;10.17;;;24.00;99.90;;;;;;5067901;28;20216;-74
2022/05/12 07:37:34;;;;;;;34.03;10.47;;;24.20;99.90;;;;;;5067612;28;20211;-73
2022/05/12 07:40:02;;;;;;;37.03;11.10;;;24.30;99.90;;;;;;5067262;28;20250;-73
2022/05/12 07:42:29;;;;;;;38.30;11.97;;;23.70;99.90;;;;;;5064777;28;20212;-73
2022/05/12 07:44:56;;;;;;;43.23;12.10;;;23.60;99.90;;;;;;5066897;28;20791;-73
2022/05/12 07:47:23;;;;;;;36.07;11.70;;;23.10;99.90;;;;;;5066914;28;20695;-73
2022/05/12 07:49:50;;;;;;;33.67;11.73;;;22.40;99.90;;;;;;5069435;28;20284;-74
2022/05/12 07:52:17;;;;;;;43.67;13.27;;;21.30;99.90;;;;;;5050041;28;20241;-73
2022/05/12 07:54:45;;;;;;;43.30;13.37;;;21.30;99.90;;;;;;5075097;28;20243;-73
2022/05/12 07:57:12;;;;;;;34.00;11.20;;;20.80;99.90;;;;;;5079689;28;20199;-73
2022/05/12 07:59:39;;;;;;;48.63;13.97;;;19.50;99.90;;;;;;5078915;28;20263;-72
2022/05/12 08:02:07;;;;;;;40.10;12.40;;;20.10;99.90;;;;;;5068253;28;20578;-72
2022/05/12 08:04:35;;;;;;;34.67;10.47;;;19.70;99.90;;;;;;5068962;28;20232;-73
2022/05/12 08:07:02;;;;;;;43.23;12.10;;;20.50;99.90;;;;;;5067575;28;20255;-72
2022/05/12 08:09:29;;;;;;;39.13;11.20;;;20.70;99.90;;;;;;5053350;28;20296;-73
2022/05/12 08:11:57;;;;;;;34.00;10.73;;;20.70;99.90;;;;;;5069566;28;20214;-73
2022/05/12 08:14:24;;;;;;;32.73;10.73;;;20.90;99.90;;;;;;5064690;28;20235;-73
2022/05/12 08:16:51;;;;;;;34.80;10.30;;;21.40;99.90;;;;;;5059379;28;20399;-73
2022/05/12 08:19:18;;;;;;;40.50;11.37;;;22.00;99.90;;;;;;5067071;28;20222;-74
2022/05/12 08:21:45;;;;;;;36.77;11.40;;;23.50;99.90;;;;;;5063993;28;20266;-74
2022/05/12 08:24:12;;;;;;;34.17;9.87;;;24.00;99.90;;;;;;5064947;28;20235;-73
2022/05/12 08:26:39;;;;;;;35.90;10.35;;;24.90;99.90;;;;;;5063746;28;20293;-73
2022/05/12 08:29:08;;;;;;;39.50;11.13;;;26.00;99.90;;;;;;5053754;28;20212;-74
2022/05/12 08:31:34;;;;;;;34.28;10.27;;;27.10;99.90;;;;;;5065935;28;20247;-75
2022/05/12 08:34:01;;;;;;;35.65;10.30;;;27.90;99.90;;;;;;5063914;28;20232;-75
2022/05/12 08:36:28;;;;;;;41.60;10.10;;;28.60;99.90;;;;;;5065462;28;20208;-75
2022/05/12 08:38:55;;;;;;;42.10;11.20;;;28.50;97.90;;;;;;5066975;28;20212;-74
2022/05/12 08:41:31;;;;;;;42.03;11.23;;;28.10;96.20;;;;;;5064992;28;20282;-74
2022/05/12 08:44:01;;;;;;;36.93;10.00;;;27.20;94.70;;;;;;5065452;28;20489;-74
2022/05/12 08:46:39;;;;;;;43.47;11.20;;;26.00;94.10;;;;;;5065505;28;20315;-74
2022/05/12 08:49:14;;;;;;;34.43;9.60;;;25.00;95.40;;;;;;5066661;28;20217;-74
2022/05/12 08:51:41;;;;;;;43.50;11.30;;;24.70;96.40;;;;;;5066143;28;20216;-74
2022/05/12 08:54:15;;;;;;;41.80;11.43;;;24.60;96.40;;;;;;5059022;28;20675;-74
2022/05/12 08:56:44;;;;;;;39.73;11.27;;;24.60;96.70;;;;;;5065587;28;20233;-74
2022/05/12 08:59:11;;;;;;;47.30;12.27;;;24.70;97.00;;;;;;5066305;28;20209;-75
2022/05/12 09:01:53;;;;;;;42.73;11.43;;;24.60;96.70;;;;;;5059765;28;20215;-75
2022/05/12 09:04:34;;;;;;;43.23;11.77;;;24.80;97.60;;;;;;5062668;28;20229;-75
2022/05/12 09:07:09;;;;;;;41.00;11.30;;;24.80;96.80;;;;;;5063830;28;20237;-75
2022/05/12 09:09:43;;;;;;;39.50;11.37;;;24.50;96.40;;;;;;5047866;28;20650;-75
2022/05/12 09:12:25;;;;;;;44.43;12.87;;;24.30;96.70;;;;;;5064903;28;20564;-75
2022/05/12 09:14:57;;;;;;;41.30;11.60;;;24.60;96.70;;;;;;5043249;28;20215;-75
2022/05/12 09:17:30;;;;;;;41.60;12.00;;;24.80;96.70;;;;;;5043337;28;20215;-75
2022/05/12 09:20:00;;;;;;;40.80;11.77;;;25.10;96.20;;;;;;5065695;28;20250;-74
2022/05/12 09:22:28;;;;;;;42.50;11.53;;;24.90;94.90;;;;;;5062475;28;20214;-74
2022/05/12 09:24:56;;;;;;;42.80;11.93;;;26.40;95.50;;;;;;5059786;28;20280;-74
2022/05/12 09:27:29;;;;;;;37.43;10.87;;;24.60;94.70;;;;;;5066033;28;20589;-74
2022/05/12 09:29:56;;;;;;;34.45;9.55;;;24.60;95.10;;;;;;5064685;28;20711;-75
2022/05/12 09:32:26;;;;;;;35.33;10.07;;;25.30;96.00;;;;;;5045282;28;20219;-75
2022/05/12 09:35:13;;;;;;;35.13;9.88;;;25.40;95.90;;;;;;5061287;28;20208;-75
2022/05/12 09:37:42;;;;;;;33.70;9.20;;;24.90;94.80;;;;;;5064546;28;20465;-75
2022/05/12 09:40:32;;;;;;;31.38;8.73;;;26.80;94.00;;;;;;5047625;28;20862;-76
2022/05/12 09:43:02;;;;;;;32.50;8.63;;;27.40;93.20;;;;;;5046731;28;20701;-75
2022/05/12 09:45:32;;;;;;;31.48;7.35;;;27.60;92.00;;;;;;5065402;28;20204;-75
2022/05/12 09:48:19;;;;;;;32.92;9.02;;;27.70;90.10;;;;;;5041282;28;20297;-75
2022/05/12 09:50:46;;;;;;;40.83;10.90;;;27.20;89.10;;;;;;5044153;28;20227;-74
2022/05/12 09:53:14;;;;;;;42.43;10.27;;;26.40;89.10;;;;;;5064554;28;20257;-74
2022/05/12 09:55:43;;;;;;;43.13;10.40;;;25.70;89.50;;;;;;5068310;28;20230;-74
2022/05/12 09:58:31;;;;;;;43.00;10.93;;;25.00;89.90;;;;;;5063853;28;20205;-74
2022/05/12 10:01:19;;;;;;;38.73;10.20;;;24.10;90.20;;;;;;5062479;28;20208;-74
2022/05/12 10:09:21;;;;;;;34.37;8.53;;;23.10;90.50;;;;;;5064422;28;20286;-72
2022/05/12 10:11:54;;;;;;;44.20;10.10;;;23.10;90.20;;;;;;5057355;28;20213;-73
2022/05/12 10:14:33;;;;;;;48.10;10.37;;;23.20;90.70;;;;;;5063322;28;20777;-73
2022/05/12 10:17:03;;;;;;;63.20;13.03;;;23.30;90.90;;;;;;5060667;28;20681;-73
2022/05/12 10:19:33;;;;;;;44.10;9.27;;;23.20;90.10;;;;;;5070411;28;20204;-73
2022/05/12 10:22:12;;;;;;;45.53;10.30;;;23.20;88.80;;;;;;5067529;28;20638;-73
2022/05/12 10:24:47;;;;;;;41.00;8.50;;;23.00;87.30;;;;;;5070860;28;20699;-73
2022/05/12 10:27:19;;;;;;;40.47;9.37;;;22.80;86.80;;;;;;5054275;28;20220;-73
2022/05/12 10:29:54;;;;;;;41.00;8.47;;;22.60;87.00;;;;;;5063659;28;20196;-73
2022/05/12 10:32:36;;;;;;;53.47;11.23;;;22.20;88.70;;;;;;5060058;28;20204;-73
2022/05/12 10:35:09;;;;;;;48.37;10.60;;;22.20;89.30;;;;;;5055730;28;20208;-73
2022/05/12 10:37:48;;;;;;;45.47;10.27;;;22.50;90.30;;;;;;5059464;28;20555;-73
2022/05/12 10:40:31;;;;;;;45.07;10.63;;;22.80;90.50;;;;;;5055271;28;20200;-73
2022/05/12 10:43:16;;;;;;;56.30;12.73;;;23.30;90.30;;;;;;5039046;28;20301;-74
2022/05/12 10:45:49;;;;;;;39.40;9.30;;;23.30;90.20;;;;;;5065262;28;20278;-73
2022/05/12 10:48:33;;;;;;;43.20;9.70;;;23.50;90.00;;;;;;5061973;28;20722;-74
2022/05/12 10:51:04;;;;;;;48.23;10.90;;;23.70;90.00;;;;;;5045516;28;20558;-74
2022/05/12 10:53:46;;;;;;;38.90;8.97;;;23.90;88.80;;;;;;5069342;28;20236;-74
2022/05/12 10:56:27;;;;;;;38.43;8.33;;;24.00;87.90;;;;;;5060692;28;20277;-74
2022/05/12 10:59:14;;;;;;;39.53;8.57;;;24.10;87.00;;;;;;5056146;28;20204;-74
2022/05/12 11:01:44;;;;;;;39.27;8.37;;;24.20;83.90;;;;;;5053853;28;20209;-75
2022/05/12 11:04:16;;;;;;;41.43;8.63;;;24.20;83.80;;;;;;5065201;28;20555;-74
2022/05/12 11:06:50;;;;;;;43.87;8.90;;;24.20;83.00;;;;;;5069054;28;20202;-73
2022/05/12 11:09:22;;;;;;;44.37;9.30;;;24.10;83.30;;;;;;5066504;28;20208;-73
2022/05/12 11:11:51;;;;;;;30.33;7.13;;;24.10;83.20;;;;;;5063556;28;20236;-72
2022/05/12 11:14:22;;;;;;;34.10;7.77;;;24.20;83.50;;;;;;5064310;28;20303;-73
2022/05/12 11:16:58;;;;;;;35.30;8.10;;;24.30;84.50;;;;;;5058451;28;20216;-73
2022/05/12 11:19:26;;;;;;;40.03;8.20;;;24.30;84.00;;;;;;5063341;28;20228;-73
2022/05/12 11:22:03;;;;;;;41.63;9.40;;;24.20;81.00;;;;;;5061246;28;20208;-73
2022/05/12 11:24:37;;;;;;;45.70;10.03;;;24.10;80.30;;;;;;5067096;28;20251;-73
2022/05/12 11:27:31;;;;;;;41.93;9.93;;;24.10;81.10;;;;;;5068561;28;20243;-73
2022/05/12 11:30:19;;;;;;;33.17;7.97;;;24.00;82.00;;;;;;5067155;28;20231;-73
2022/05/12 11:32:54;;;;;;;34.43;8.13;;;24.00;83.00;;;;;;5066556;28;20247;-74
2022/05/12 11:35:23;;;;;;;43.77;9.40;;;24.10;83.40;;;;;;5071084;28;20200;-73
2022/05/12 11:37:58;;;;;;;40.23;8.47;;;24.10;83.40;;;;;;5069934;28;20223;-73
2022/05/12 11:40:49;;;;;;;36.20;7.83;;;24.20;82.80;;;;;;5067049;28;20200;-73
2022/05/12 11:46:31;;;;;;;44.93;9.57;;;24.30;81.90;;;;;;5043321;28;20596;-72
2022/05/12 11:49:01;;;;;;;45.37;9.40;;;24.40;81.20;;;;;;5062389;28;20263;-74
2022/05/12 11:51:43;;;;;;;50.50;10.70;;;24.50;81.20;;;;;;5069746;28;20220;-73
2022/05/12 11:54:21;;;;;;;36.27;8.03;;;24.80;81.00;;;;;;5067216;28;20728;-74
2022/05/12 11:56:51;;;;;;;36.60;8.40;;;25.30;80.90;;;;;;5049916;28;20217;-73
2022/05/12 11:59:43;;;;;;;29.43;7.03;;;25.10;80.50;;;;;;5073379;28;20519;-74
2022/05/12 12:02:43;;;;;;;31.73;6.83;;;25.60;78.70;;;;;;5066243;28;20213;-74
2022/05/12 12:05:13;;;;;;;39.97;8.33;;;25.30;79.30;;;;;;5064665;28;20212;-74
2022/05/12 12:08:02;;;;;;;30.43;6.90;;;25.30;79.50;;;;;;5068196;28;20514;-73
2022/05/12 12:10:36;;;;;;;37.63;8.43;;;25.40;80.40;;;;;;5051504;28;20680;-73
2022/05/12 12:13:05;;;;;;;38.93;8.40;;;25.70;79.40;;;;;;5066780;28;20229;-72
2022/05/12 12:16:05;;;;;;;28.27;6.80;;;25.70;78.70;;;;;;5069724;28;21044;-74
2022/05/12 12:19:01;;;;;;;29.27;7.00;;;25.60;77.20;;;;;;5069831;28;20853;-73
2022/05/12 12:21:53;;;;;;;34.97;8.17;;;25.30;78.20;;;;;;5069123;28;20210;-73
2022/05/12 12:24:43;;;;;;;39.40;8.43;;;25.20;78.60;;;;;;5072113;28;20248;-73
2022/05/12 12:27:46;;;;;;;31.93;7.07;;;25.30;79.10;;;;;;5072009;28;20206;-75
2022/05/12 12:30:26;;;;;;;34.90;8.13;;;25.20;78.90;;;;;;5065763;28;20204;-74
2022/05/12 12:33:14;;;;;;;37.50;8.10;;;24.70;78.60;;;;;;5063048;28;20286;-74
2022/05/12 12:36:00;;;;;;;35.63;7.70;;;24.70;78.80;;;;;;5049897;28;20249;-74
2022/05/12 12:39:09;;;;;;;34.20;8.00;;;24.60;79.20;;;;;;5068338;28;20291;-74
2022/05/12 12:41:42;;;;;;;37.43;8.03;;;24.50;78.70;;;;;;5070223;28;20216;-75
2022/05/12 12:44:19;;;;;;;32.33;7.30;;;24.40;78.80;;;;;;5067251;28;20259;-75
2022/05/12 12:47:00;;;;;;;39.07;8.43;;;24.40;78.70;;;;;;5060633;28;20212;-74
2022/05/12 12:49:29;;;;;;;33.90;7.60;;;24.30;79.20;;;;;;5063147;28;20404;-75
2022/05/12 12:51:59;;;;;;;35.10;8.00;;;24.20;79.00;;;;;;5065839;28;20215;-74
2022/05/12 12:57:30;;;;;;;38.77;8.70;;;24.10;79.50;;;;;;4986339;28;20198;-75
2022/05/12 13:00:00;;;;;;;39.00;8.50;;;24.20;80.10;;;;;;4987213;28;20244;-75
2022/05/12 13:02:31;;;;;;;40.03;8.90;;;24.50;78.70;;;;;;5028355;28;20528;-76
2022/05/12 13:05:02;;;;;;;37.13;9.03;;;24.40;78.80;;;;;;5060255;28;20274;-74
2022/05/12 13:07:33;;;;;;;38.57;8.40;;;24.40;78.30;;;;;;5065143;28;20224;-74
2022/05/12 13:10:04;;;;;;;30.43;7.30;;;24.50;79.10;;;;;;5061706;28;20546;-74
2022/05/12 13:12:32;;;;;;;40.60;8.30;;;24.70;78.50;;;;;;5063994;28;20220;-74
2022/05/12 13:15:01;;;;;;;33.57;7.67;;;24.70;78.70;;;;;;5067964;28;20754;-74
2022/05/12 13:17:30;;;;;;;33.03;7.30;;;24.80;77.50;;;;;;5067031;28;20247;-74